Time;durP1;ratioP1;P1;durP2;ratioP2;P2;SDS_P1;SDS_P2;PMS_P1;PMS_P2;Temp;Humidity;BMP_temperature;BMP_pressure;BME280_temperature;BME280_humidity;BME280_pressure;Samples;Min_cycle;Max_cycle;Signal;HPM_P1;HPM_P2
2021/11/14 00:00:32;;;;;;;10.20;9.20;;;9.90;99.90;;;;;;5120174;28;20522;-73
2021/11/14 00:02:59;;;;;;;9.70;8.90;;;9.90;99.90;;;;;;5129213;28;20809;-72
2021/11/14 00:05:25;;;;;;;9.17;8.17;;;9.90;99.90;;;;;;5128929;28;20417;-74
2021/11/14 00:07:50;;;;;;;9.10;8.20;;;9.90;99.90;;;;;;5129049;28;20930;-72
2021/11/14 00:10:16;;;;;;;9.60;8.70;;;9.90;99.90;;;;;;5129407;28;20550;-72
2021/11/14 00:12:42;;;;;;;9.80;8.80;;;9.90;99.90;;;;;;5129009;28;20189;-73
2021/11/14 00:15:09;;;;;;;9.87;8.97;;;9.90;99.90;;;;;;5117723;28;20412;-72
2021/11/14 00:17:35;;;;;;;10.10;9.10;;;9.90;99.90;;;;;;5114446;28;20265;-72
2021/11/14 00:20:05;;;;;;;10.90;9.80;;;9.90;99.90;;;;;;5115030;28;20448;-72
2021/11/14 00:22:31;;;;;;;12.00;10.83;;;9.90;99.90;;;;;;5115303;28;20214;-72
2021/11/14 00:24:57;;;;;;;12.30;10.67;;;9.90;99.90;;;;;;5115174;28;20498;-72
2021/11/14 00:27:23;;;;;;;12.73;11.53;;;9.90;99.90;;;;;;5115027;28;20184;-73
2021/11/14 00:29:49;;;;;;;13.20;12.00;;;10.00;99.90;;;;;;5114592;28;20164;-73
2021/11/14 00:32:15;;;;;;;14.20;12.80;;;10.00;99.90;;;;;;5114586;28;20168;-72
2021/11/14 00:34:41;;;;;;;14.77;11.93;;;9.90;99.90;;;;;;5096064;28;20502;-72
2021/11/14 00:37:07;;;;;;;14.40;12.97;;;9.90;99.90;;;;;;5094771;28;20171;-73
2021/11/14 00:39:33;;;;;;;14.40;13.00;;;10.00;99.90;;;;;;5095110;28;20874;-73
2021/11/14 00:41:58;;;;;;;14.20;12.80;;;9.90;99.90;;;;;;5115175;28;20505;-73
2021/11/14 00:44:24;;;;;;;16.27;14.67;;;9.90;99.90;;;;;;5114646;28;20213;-73
2021/11/14 00:46:50;;;;;;;16.93;15.23;;;9.90;99.90;;;;;;5115227;28;20176;-73
2021/11/14 00:49:16;;;;;;;17.50;15.70;;;9.90;99.90;;;;;;5115214;28;20156;-73
2021/11/14 00:51:42;;;;;;;19.10;15.33;;;9.90;99.90;;;;;;5096652;28;20181;-72
2021/11/14 00:54:07;;;;;;;29.23;20.73;;;10.00;99.90;;;;;;5109759;28;20414;-72
2021/11/14 00:56:34;;;;;;;26.50;19.83;;;9.90;99.90;;;;;;5114878;28;20165;-72
2021/11/14 00:58:59;;;;;;;21.30;16.43;;;9.90;99.90;;;;;;5114910;28;20181;-72
2021/11/14 01:01:26;;;;;;;15.80;13.20;;;9.80;99.90;;;;;;5114598;28;20495;-72
2021/11/14 01:03:52;;;;;;;14.83;13.10;;;9.80;99.90;;;;;;5114359;28;20699;-72
2021/11/14 01:06:18;;;;;;;14.87;13.37;;;9.90;99.90;;;;;;5114581;27;20493;-72
2021/11/14 01:08:44;;;;;;;14.30;12.40;;;9.80;99.90;;;;;;5095776;28;20452;-72
2021/11/14 01:11:10;;;;;;;14.50;13.07;;;9.90;99.90;;;;;;5095898;28;20175;-72
2021/11/14 01:13:37;;;;;;;12.40;10.83;;;9.90;99.90;;;;;;5114280;28;20436;-73
2021/11/14 01:16:05;;;;;;;13.87;11.50;;;9.90;99.90;;;;;;5115105;28;20413;-72
2021/11/14 01:18:32;;;;;;;11.30;10.10;;;9.90;99.90;;;;;;5114543;28;20881;-72
2021/11/14 01:21:00;;;;;;;11.63;10.43;;;9.90;99.90;;;;;;5113895;27;20504;-72
2021/11/14 01:23:26;;;;;;;11.27;10.17;;;9.90;99.90;;;;;;5113867;28;20810;-73
2021/11/14 01:25:53;;;;;;;17.33;13.73;;;9.90;99.90;;;;;;5112784;28;20433;-73
2021/11/14 01:28:20;;;;;;;15.60;14.10;;;9.90;99.90;;;;;;5114012;28;20642;-72
2021/11/14 01:30:48;;;;;;;15.13;13.40;;;9.90;99.90;;;;;;5114226;28;20409;-73
2021/11/14 01:33:16;;;;;;;16.13;13.27;;;9.90;99.90;;;;;;5114116;27;20435;-73
2021/11/14 01:35:42;;;;;;;19.10;14.17;;;10.00;99.90;;;;;;5113910;28;20479;-72
2021/11/14 01:38:08;;;;;;;16.53;14.83;;;10.00;99.90;;;;;;5113843;28;20878;-72
2021/11/14 01:40:41;;;;;;;14.90;13.20;;;9.90;99.90;;;;;;5113023;28;20448;-72
2021/11/14 01:43:10;;;;;;;15.00;13.27;;;9.90;99.90;;;;;;5113700;28;20450;-73
2021/11/14 01:45:36;;;;;;;15.53;13.87;;;9.90;99.90;;;;;;5113796;28;20909;-73
2021/11/14 01:48:03;;;;;;;17.90;16.10;;;9.90;99.90;;;;;;5113578;28;20389;-72
2021/11/14 01:50:28;;;;;;;17.27;15.17;;;9.80;99.90;;;;;;5113588;28;20418;-72
2021/11/14 01:52:55;;;;;;;26.20;20.20;;;9.80;99.90;;;;;;5114162;28;20568;-72
2021/11/14 01:55:24;;;;;;;25.30;20.23;;;9.80;99.90;;;;;;5113288;28;20278;-72
2021/11/14 01:57:51;;;;;;;42.30;27.27;;;9.80;99.90;;;;;;5110318;28;20433;-72
2021/11/14 02:00:22;;;;;;;29.53;21.00;;;9.70;99.90;;;;;;5102282;28;20413;-72
2021/11/14 02:02:48;;;;;;;16.80;13.10;;;9.80;99.90;;;;;;5113379;28;20871;-72
2021/11/14 02:05:14;;;;;;;19.10;15.00;;;9.70;99.90;;;;;;5112951;28;20413;-72
2021/11/14 02:07:40;;;;;;;17.53;15.20;;;9.70;99.90;;;;;;5113135;28;20479;-73
2021/11/14 02:10:08;;;;;;;24.53;18.20;;;9.70;99.90;;;;;;5113496;28;20164;-72
2021/11/14 02:12:34;;;;;;;36.77;26.53;;;9.70;99.90;;;;;;5113159;28;20215;-72
2021/11/14 02:15:00;;;;;;;49.37;31.20;;;9.70;99.90;;;;;;5112427;28;20458;-72
2021/11/14 02:17:26;;;;;;;50.03;34.17;;;9.70;99.90;;;;;;5113472;28;20167;-73
2021/11/14 02:19:53;;;;;;;38.10;25.93;;;9.70;99.90;;;;;;5113100;28;20203;-73
2021/11/14 02:22:19;;;;;;;37.90;26.90;;;9.70;99.90;;;;;;5113429;28;20182;-73
2021/11/14 02:24:45;;;;;;;41.40;28.83;;;9.70;99.90;;;;;;5113097;28;20414;-73
2021/11/14 02:27:12;;;;;;;41.63;29.90;;;9.70;99.90;;;;;;5112665;28;20902;-73
2021/11/14 02:29:38;;;;;;;43.27;29.73;;;9.70;99.90;;;;;;5112150;28;20458;-72
2021/11/14 02:32:05;;;;;;;46.43;30.07;;;9.70;99.90;;;;;;5108167;28;20847;-73
2021/11/14 02:34:30;;;;;;;40.30;29.03;;;9.70;99.90;;;;;;5092886;28;20247;-73
2021/11/14 02:36:56;;;;;;;39.80;27.27;;;9.70;99.90;;;;;;5112836;28;20481;-72
2021/11/14 02:39:21;;;;;;;39.23;31.37;;;9.70;99.90;;;;;;5112933;28;20179;-72
2021/11/14 02:41:47;;;;;;;41.73;28.10;;;9.70;99.90;;;;;;5112946;28;20164;-72
2021/11/14 02:44:13;;;;;;;34.80;26.53;;;9.70;99.90;;;;;;5112594;28;20177;-72
2021/11/14 02:46:39;;;;;;;39.47;28.17;;;9.70;99.90;;;;;;5112564;28;20170;-72
2021/11/14 02:49:05;;;;;;;36.27;28.47;;;9.70;99.90;;;;;;5107761;28;20439;-73
2021/11/14 02:51:32;;;;;;;40.20;29.40;;;9.70;99.90;;;;;;5092437;28;20165;-72
2021/11/14 02:54:01;;;;;;;38.57;25.50;;;9.70;99.90;;;;;;5092408;28;20160;-72
2021/11/14 02:56:28;;;;;;;37.23;28.23;;;9.70;99.90;;;;;;5108375;28;20832;-74
2021/11/14 02:58:54;;;;;;;39.67;24.47;;;9.70;99.90;;;;;;5112282;28;20873;-74
2021/11/14 03:01:26;;;;;;;32.63;24.00;;;9.70;99.90;;;;;;5112408;28;20494;-73
2021/11/14 03:03:53;;;;;;;36.30;28.50;;;9.70;99.90;;;;;;5112426;28;20464;-72
2021/11/14 03:06:20;;;;;;;43.63;28.37;;;9.70;99.90;;;;;;5111398;28;20504;-72
2021/11/14 03:08:46;;;;;;;39.50;27.53;;;9.80;99.90;;;;;;5112482;28;20757;-72
2021/11/14 03:11:12;;;;;;;44.37;28.07;;;9.80;99.90;;;;;;5112275;28;20405;-72
2021/11/14 03:13:38;;;;;;;42.97;28.70;;;9.70;99.90;;;;;;5112459;28;20603;-72
2021/11/14 03:16:06;;;;;;;48.93;29.07;;;9.70;99.90;;;;;;5112648;28;20175;-72
2021/11/14 03:18:32;;;;;;;48.40;30.90;;;9.80;99.90;;;;;;5112721;28;20401;-73
2021/11/14 03:20:58;;;;;;;40.70;27.00;;;9.80;99.90;;;;;;5112359;28;20425;-72
2021/11/14 03:23:26;;;;;;;38.97;26.67;;;9.80;99.90;;;;;;5111272;28;20312;-76
2021/11/14 03:25:52;;;;;;;36.17;26.43;;;9.80;99.90;;;;;;5111919;28;20422;-76
2021/11/14 03:28:19;;;;;;;41.60;26.40;;;9.80;99.90;;;;;;5109675;28;20436;-76
2021/11/14 03:30:46;;;;;;;37.90;25.30;;;9.80;99.90;;;;;;5111822;28;20420;-76
2021/11/14 03:33:13;;;;;;;37.83;26.37;;;9.80;99.90;;;;;;5111961;28;20401;-76
2021/11/14 03:35:47;;;;;;;41.83;26.77;;;9.80;99.90;;;;;;5112209;28;20455;-76
2021/11/14 03:38:13;;;;;;;37.83;24.67;;;9.80;99.90;;;;;;5112534;28;20416;-76
2021/11/14 03:40:40;;;;;;;35.23;23.33;;;9.80;99.90;;;;;;5111462;28;20506;-76
2021/11/14 03:43:06;;;;;;;41.07;26.20;;;9.80;99.90;;;;;;5111790;28;21009;-76
2021/11/14 03:45:32;;;;;;;40.97;26.20;;;9.80;99.90;;;;;;5112200;28;20392;-76
2021/11/14 03:47:58;;;;;;;39.13;25.43;;;9.80;99.90;;;;;;5112115;28;20445;-76
2021/11/14 03:50:24;;;;;;;37.23;24.27;;;9.70;99.90;;;;;;5114703;28;20416;-76
2021/11/14 03:52:50;;;;;;;41.27;24.87;;;9.80;99.90;;;;;;5115744;28;20499;-76
2021/11/14 03:55:16;;;;;;;37.40;24.37;;;9.80;99.90;;;;;;5115638;28;20453;-76
2021/11/14 03:57:44;;;;;;;39.80;26.57;;;9.80;99.90;;;;;;5105390;28;20197;-76
2021/11/14 04:00:15;;;;;;;42.13;25.90;;;9.80;99.90;;;;;;5103386;28;20262;-76
2021/11/14 04:02:42;;;;;;;37.00;26.30;;;9.80;99.90;;;;;;5115148;28;20461;-76
2021/11/14 04:05:08;;;;;;;43.87;25.10;;;9.80;99.90;;;;;;5115032;28;20414;-76
2021/11/14 04:07:34;;;;;;;42.73;26.27;;;9.80;99.90;;;;;;5115675;28;20400;-76
2021/11/14 04:09:59;;;;;;;37.40;26.50;;;9.80;99.90;;;;;;5115117;28;21138;-76
2021/11/14 04:12:25;;;;;;;39.87;26.33;;;9.80;99.90;;;;;;5115254;28;20277;-76
2021/11/14 04:14:50;;;;;;;42.93;26.57;;;9.90;99.90;;;;;;5104317;28;20202;-76
2021/11/14 04:17:16;;;;;;;38.30;25.63;;;9.80;99.90;;;;;;5111132;28;20194;-76
2021/11/14 04:19:41;;;;;;;38.73;26.07;;;9.80;99.90;;;;;;5115178;28;20156;-76
2021/11/14 04:22:07;;;;;;;35.60;24.90;;;9.90;99.90;;;;;;5115378;28;20198;-76
2021/11/14 04:24:32;;;;;;;38.90;27.23;;;9.80;99.90;;;;;;5115187;28;20525;-76
2021/11/14 04:26:58;;;;;;;40.10;26.37;;;9.90;99.90;;;;;;5114758;28;20159;-76
2021/11/14 04:29:24;;;;;;;32.03;24.20;;;9.90;99.90;;;;;;5114915;28;20247;-76
2021/11/14 04:31:49;;;;;;;40.57;26.67;;;9.90;99.90;;;;;;5108383;28;20187;-76
2021/11/14 04:34:15;;;;;;;35.03;23.93;;;9.90;99.90;;;;;;5115151;28;20691;-76
2021/11/14 04:36:40;;;;;;;33.57;22.97;;;9.90;99.90;;;;;;5115134;28;20186;-76
2021/11/14 04:39:06;;;;;;;39.00;24.97;;;9.90;99.90;;;;;;5114755;28;20183;-76
2021/11/14 04:41:32;;;;;;;37.70;23.70;;;9.90;99.90;;;;;;5114797;28;20160;-76
2021/11/14 04:43:57;;;;;;;35.13;23.43;;;9.90;99.90;;;;;;5114621;28;20655;-76
2021/11/14 04:46:23;;;;;;;30.73;23.20;;;9.90;99.90;;;;;;5114988;28;20242;-76
2021/11/14 04:48:49;;;;;;;36.37;24.00;;;9.90;99.90;;;;;;5113609;28;20184;-76
2021/11/14 04:51:14;;;;;;;30.67;22.77;;;9.90;99.90;;;;;;5114398;28;20202;-77
2021/11/14 04:53:40;;;;;;;36.53;23.20;;;9.90;99.90;;;;;;5115166;28;20250;-76
2021/11/14 04:56:05;;;;;;;37.33;24.10;;;9.90;99.90;;;;;;5114365;28;20259;-76
2021/11/14 04:58:31;;;;;;;32.73;22.53;;;9.90;99.90;;;;;;5114564;28;20172;-76
2021/11/14 05:00:57;;;;;;;34.50;23.60;;;9.90;99.90;;;;;;5114122;28;20173;-76
2021/11/14 05:03:23;;;;;;;32.63;22.10;;;9.90;99.90;;;;;;5114353;28;20553;-76
2021/11/14 05:05:48;;;;;;;34.97;23.30;;;9.90;99.90;;;;;;5103255;28;20701;-76
2021/11/14 05:08:14;;;;;;;36.97;24.90;;;9.90;99.90;;;;;;5093872;28;20481;-76
2021/11/14 05:10:43;;;;;;;38.60;24.20;;;9.90;99.90;;;;;;5103939;28;20172;-76
2021/11/14 05:13:09;;;;;;;35.20;23.20;;;10.00;99.90;;;;;;5113979;28;20181;-76
2021/11/14 05:15:35;;;;;;;32.97;23.70;;;10.00;99.90;;;;;;5113847;28;20467;-76
2021/11/14 05:18:01;;;;;;;32.13;22.37;;;10.00;99.90;;;;;;5114157;28;20510;-76
2021/11/14 05:20:27;;;;;;;33.17;22.20;;;10.00;99.90;;;;;;5114352;28;20418;-76
2021/11/14 05:22:53;;;;;;;33.70;22.97;;;10.00;99.90;;;;;;5102488;28;20460;-76
2021/11/14 05:25:20;;;;;;;37.47;23.67;;;10.00;99.90;;;;;;5100188;28;20202;-76
2021/11/14 05:27:46;;;;;;;29.80;21.43;;;10.00;99.90;;;;;;5113505;28;20642;-76
2021/11/14 05:30:12;;;;;;;37.53;24.43;;;10.00;99.90;;;;;;5113999;28;20415;-76
2021/11/14 05:32:38;;;;;;;29.10;22.57;;;10.00;99.90;;;;;;5114389;28;20886;-76
2021/11/14 05:35:05;;;;;;;36.20;24.10;;;10.00;99.90;;;;;;5113574;28;20474;-76
2021/11/14 05:37:31;;;;;;;31.67;24.13;;;10.00;99.90;;;;;;5114081;28;20167;-76
2021/11/14 05:39:56;;;;;;;33.00;24.40;;;10.00;99.90;;;;;;5104866;28;20434;-76
2021/11/14 05:42:22;;;;;;;32.10;24.03;;;10.00;99.90;;;;;;5114473;28;20436;-76
2021/11/14 05:44:48;;;;;;;31.20;23.03;;;9.90;99.90;;;;;;5113020;28;20690;-76
2021/11/14 05:47:14;;;;;;;29.20;23.27;;;9.90;99.90;;;;;;5113770;28;20154;-75
2021/11/14 05:49:39;;;;;;;24.40;21.30;;;9.90;99.90;;;;;;5113177;28;20163;-75
2021/11/14 05:52:05;;;;;;;28.27;23.10;;;9.90;99.90;;;;;;5113775;28;20386;-75
2021/11/14 05:54:31;;;;;;;30.10;23.07;;;9.90;99.90;;;;;;5113467;28;20546;-75
2021/11/14 05:56:57;;;;;;;22.07;19.40;;;9.80;99.90;;;;;;5112333;28;20427;-75
2021/11/14 05:59:33;;;;;;;24.80;21.30;;;9.80;99.90;;;;;;5113827;28;20175;-75
2021/11/14 06:02:07;;;;;;;21.83;19.63;;;9.80;99.90;;;;;;5113378;28;20400;-75
2021/11/14 06:04:40;;;;;;;22.40;18.93;;;9.80;99.90;;;;;;5113091;28;20798;-75
2021/11/14 06:07:05;;;;;;;24.00;18.97;;;9.70;99.90;;;;;;5113537;28;20400;-75
2021/11/14 06:09:31;;;;;;;20.80;18.57;;;9.70;99.90;;;;;;5113163;28;20389;-75
2021/11/14 06:11:56;;;;;;;21.10;18.90;;;9.60;99.90;;;;;;5113249;28;20658;-75
2021/11/14 06:14:22;;;;;;;24.30;20.70;;;9.60;99.90;;;;;;5097933;28;20244;-75
2021/11/14 06:16:48;;;;;;;26.70;23.80;;;9.50;99.90;;;;;;5111857;28;20182;-75
2021/11/14 06:19:13;;;;;;;26.00;23.17;;;9.50;99.90;;;;;;5112761;28;20237;-75
2021/11/14 06:21:39;;;;;;;24.27;21.53;;;9.40;99.90;;;;;;5113355;28;20377;-75
2021/11/14 06:24:05;;;;;;;25.37;22.47;;;9.40;99.90;;;;;;5113326;28;20187;-75
2021/11/14 06:26:30;;;;;;;34.20;26.50;;;9.40;99.90;;;;;;5112643;28;20232;-75
2021/11/14 06:28:56;;;;;;;27.90;24.87;;;9.30;99.90;;;;;;5113329;28;20154;-75
2021/11/14 06:31:22;;;;;;;28.27;24.00;;;9.30;99.90;;;;;;5111260;28;20261;-75
2021/11/14 06:33:47;;;;;;;26.67;23.77;;;9.30;99.90;;;;;;5113651;28;20562;-75
2021/11/14 06:36:13;;;;;;;27.50;23.53;;;9.30;99.90;;;;;;5112586;28;20181;-75
2021/11/14 06:38:39;;;;;;;24.10;21.03;;;9.30;99.90;;;;;;5112792;28;20276;-75
2021/11/14 06:41:04;;;;;;;24.73;22.13;;;9.30;99.90;;;;;;5113037;28;20193;-75
2021/11/14 06:43:30;;;;;;;29.10;22.17;;;9.30;99.90;;;;;;5113195;28;20236;-75
2021/11/14 06:45:55;;;;;;;26.20;21.90;;;9.20;99.90;;;;;;5112427;28;20199;-76
2021/11/14 06:48:21;;;;;;;24.50;21.87;;;9.20;99.90;;;;;;5096982;28;20178;-75
2021/11/14 06:50:47;;;;;;;23.33;20.37;;;9.20;99.90;;;;;;5105114;28;20509;-75
2021/11/14 06:53:13;;;;;;;22.47;18.87;;;9.20;99.90;;;;;;5112811;28;20411;-74
2021/11/14 06:55:38;;;;;;;20.70;18.03;;;9.10;99.90;;;;;;5112555;28;20170;-75
2021/11/14 06:58:04;;;;;;;24.80;20.90;;;9.10;99.90;;;;;;5112947;28;20158;-75
2021/11/14 07:00:30;;;;;;;24.33;19.20;;;9.10;99.90;;;;;;5112313;28;20170;-76
2021/11/14 07:02:56;;;;;;;22.10;19.17;;;9.10;99.90;;;;;;5112262;28;20459;-75
2021/11/14 07:05:21;;;;;;;24.53;20.20;;;9.10;99.90;;;;;;5103497;28;20510;-75
2021/11/14 07:07:47;;;;;;;25.70;19.40;;;9.10;99.90;;;;;;5112902;28;20173;-75
2021/11/14 07:10:16;;;;;;;25.13;18.80;;;9.10;99.90;;;;;;5112292;28;20255;-75
2021/11/14 07:12:41;;;;;;;24.70;18.90;;;9.10;99.90;;;;;;5112092;28;20658;-75
2021/11/14 07:15:11;;;;;;;24.80;19.20;;;9.00;99.90;;;;;;5111929;28;20420;-75
2021/11/14 07:17:37;;;;;;;24.30;18.77;;;9.00;99.90;;;;;;5112780;28;20533;-75
2021/11/14 07:20:05;;;;;;;23.17;18.87;;;9.00;99.90;;;;;;5112315;28;20471;-75
2021/11/14 07:22:30;;;;;;;24.57;18.80;;;9.00;99.90;;;;;;5094999;28;20230;-75
2021/11/14 07:24:56;;;;;;;22.37;19.17;;;9.00;99.90;;;;;;5097632;28;20691;-75
2021/11/14 07:27:22;;;;;;;24.50;18.20;;;9.00;99.90;;;;;;5096487;28;20159;-75
2021/11/14 07:29:49;;;;;;;26.10;19.30;;;9.00;99.90;;;;;;5101215;28;20584;-75
2021/11/14 07:32:15;;;;;;;22.97;17.13;;;9.00;99.90;;;;;;5116276;28;20254;-75
2021/11/14 07:34:41;;;;;;;27.13;19.50;;;9.00;99.90;;;;;;5116527;28;20507;-75
2021/11/14 07:37:07;;;;;;;23.10;18.70;;;9.00;99.90;;;;;;5116651;28;20396;-75
2021/11/14 07:39:33;;;;;;;28.97;20.60;;;9.00;99.90;;;;;;5099610;28;20195;-75
2021/11/14 07:41:58;;;;;;;24.20;18.50;;;9.00;99.90;;;;;;5115927;28;20161;-75
2021/11/14 07:44:24;;;;;;;20.80;18.60;;;9.00;99.90;;;;;;5116067;28;20897;-75
2021/11/14 07:46:49;;;;;;;22.90;17.73;;;9.00;99.90;;;;;;5115993;28;20266;-75
2021/11/14 07:49:15;;;;;;;22.57;18.50;;;9.00;99.90;;;;;;5116231;28;20165;-75
2021/11/14 07:51:44;;;;;;;20.07;16.70;;;9.00;99.90;;;;;;5116254;28;20189;-75
2021/11/14 07:54:09;;;;;;;24.43;18.10;;;9.00;99.90;;;;;;5116221;28;20680;-75
2021/11/14 07:56:35;;;;;;;20.97;17.47;;;9.00;99.90;;;;;;5114251;28;20427;-75
2021/11/14 07:59:01;;;;;;;20.73;17.67;;;9.00;99.90;;;;;;5115858;28;20514;-75
2021/11/14 08:01:27;;;;;;;20.20;16.33;;;9.00;99.90;;;;;;5115756;28;20162;-75
2021/11/14 08:03:52;;;;;;;19.33;16.37;;;9.00;99.90;;;;;;5115607;28;20206;-75
2021/11/14 08:06:20;;;;;;;18.07;15.47;;;9.00;99.90;;;;;;5115708;28;20649;-75
2021/11/14 08:08:46;;;;;;;19.00;17.10;;;9.00;99.90;;;;;;5116343;28;20220;-75
2021/11/14 08:11:12;;;;;;;20.70;15.80;;;9.10;99.90;;;;;;5115398;28;21033;-75
2021/11/14 08:13:37;;;;;;;18.03;15.60;;;9.10;99.90;;;;;;5114875;28;20206;-76
2021/11/14 08:16:03;;;;;;;16.77;15.00;;;9.10;99.90;;;;;;5115083;28;20208;-76
2021/11/14 08:18:29;;;;;;;16.23;14.30;;;9.10;99.90;;;;;;5115551;28;20156;-75
2021/11/14 08:20:55;;;;;;;16.43;14.73;;;9.10;99.90;;;;;;5114512;28;20951;-75
2021/11/14 08:23:21;;;;;;;19.70;16.30;;;9.10;99.90;;;;;;5115492;28;20592;-75
2021/11/14 08:25:47;;;;;;;16.17;14.50;;;9.20;99.90;;;;;;5115016;28;20173;-75
2021/11/14 08:28:14;;;;;;;16.00;14.30;;;9.20;99.90;;;;;;5115109;28;20499;-76
2021/11/14 08:30:41;;;;;;;15.67;13.97;;;9.20;99.90;;;;;;5109975;28;20446;-76
2021/11/14 08:33:08;;;;;;;15.43;13.83;;;9.30;99.90;;;;;;5114196;28;20397;-76
2021/11/14 08:35:34;;;;;;;15.00;13.60;;;9.30;99.90;;;;;;5114757;28;20423;-75
2021/11/14 08:38:01;;;;;;;13.77;12.37;;;9.30;99.90;;;;;;5115301;28;20401;-75
2021/11/14 08:40:30;;;;;;;14.60;12.50;;;9.30;99.90;;;;;;5115310;28;20413;-75
2021/11/14 08:42:58;;;;;;;13.20;11.83;;;9.30;99.90;;;;;;5115090;28;20446;-75
2021/11/14 08:45:25;;;;;;;15.60;14.10;;;9.30;99.90;;;;;;5115043;28;20432;-75
2021/11/14 08:47:50;;;;;;;13.43;12.23;;;9.40;99.90;;;;;;5095452;28;20408;-74
2021/11/14 08:50:17;;;;;;;13.30;12.10;;;9.40;99.90;;;;;;5103514;28;20405;-75
2021/11/14 08:52:45;;;;;;;14.60;12.37;;;9.40;99.90;;;;;;5115127;28;20158;-75
2021/11/14 08:55:15;;;;;;;13.97;12.67;;;9.40;99.90;;;;;;5114555;28;20920;-75
2021/11/14 08:57:42;;;;;;;13.17;11.97;;;9.40;99.90;;;;;;5114822;28;20416;-75
2021/11/14 09:00:10;;;;;;;13.97;11.90;;;9.40;99.90;;;;;;5113964;28;20417;-75
2021/11/14 09:02:36;;;;;;;14.07;12.70;;;9.40;99.90;;;;;;5113183;28;20455;-75
2021/11/14 09:05:03;;;;;;;12.97;11.87;;;9.40;99.90;;;;;;5098379;28;20416;-76
2021/11/14 09:07:29;;;;;;;13.07;11.67;;;9.50;99.90;;;;;;5114396;28;20534;-75
2021/11/14 09:09:54;;;;;;;12.63;11.53;;;9.50;99.90;;;;;;5114408;28;20404;-75
2021/11/14 09:12:20;;;;;;;13.50;12.07;;;9.50;99.90;;;;;;5114608;28;20163;-75
2021/11/14 09:14:45;;;;;;;13.63;12.37;;;9.50;99.90;;;;;;5114171;28;20687;-75
2021/11/14 09:17:11;;;;;;;13.57;12.27;;;9.50;99.90;;;;;;5114218;28;20507;-75
2021/11/14 09:19:37;;;;;;;14.60;13.07;;;9.60;99.90;;;;;;5113430;28;20256;-75
2021/11/14 09:22:03;;;;;;;13.93;11.43;;;9.60;99.90;;;;;;5093718;28;20160;-75
2021/11/14 09:24:28;;;;;;;13.67;12.23;;;9.70;99.90;;;;;;5094080;28;20288;-75
2021/11/14 09:26:54;;;;;;;14.10;12.60;;;9.70;99.90;;;;;;5113370;28;20492;-75
2021/11/14 09:29:19;;;;;;;12.30;11.10;;;9.70;99.90;;;;;;5113329;28;20153;-75
2021/11/14 09:31:45;;;;;;;13.50;12.20;;;9.70;99.90;;;;;;5114048;28;20727;-75
2021/11/14 09:34:11;;;;;;;14.30;12.77;;;9.70;99.90;;;;;;5113884;28;20163;-75
2021/11/14 09:36:38;;;;;;;12.67;11.47;;;9.80;99.90;;;;;;5112467;28;20555;-75
2021/11/14 09:39:09;;;;;;;14.13;12.83;;;9.80;99.90;;;;;;5093569;28;20394;-74
2021/11/14 09:41:38;;;;;;;12.60;11.50;;;9.60;99.90;;;;;;5110718;28;20909;-75
2021/11/14 09:44:04;;;;;;;12.60;11.13;;;9.50;99.90;;;;;;5113926;28;20481;-75
2021/11/14 09:46:30;;;;;;;13.03;11.73;;;9.50;99.90;;;;;;5112862;28;20873;-75
2021/11/14 09:48:57;;;;;;;13.53;12.10;;;9.50;99.90;;;;;;5114032;28;20563;-75
2021/11/14 09:51:23;;;;;;;13.50;12.23;;;9.60;99.90;;;;;;5113989;28;20444;-75
2021/11/14 09:53:48;;;;;;;13.90;12.50;;;9.60;99.90;;;;;;5111291;28;20867;-75
2021/11/14 09:56:14;;;;;;;12.97;11.67;;;9.70;99.90;;;;;;5107742;28;20184;-75
2021/11/14 09:58:40;;;;;;;12.93;11.67;;;9.70;99.90;;;;;;5113646;28;20160;-75
2021/11/14 10:01:06;;;;;;;13.07;11.83;;;9.70;99.90;;;;;;5113119;28;20216;-75
2021/11/14 10:03:32;;;;;;;11.70;10.63;;;9.70;99.90;;;;;;5113177;28;20468;-75
2021/11/14 10:05:58;;;;;;;14.00;11.77;;;9.80;99.90;;;;;;5112934;28;20427;-75
2021/11/14 10:08:24;;;;;;;11.33;10.13;;;9.70;99.90;;;;;;5113443;28;20197;-75
2021/11/14 10:10:54;;;;;;;10.73;9.63;;;9.70;99.90;;;;;;5110254;28;20265;-75
2021/11/14 10:13:23;;;;;;;11.47;10.37;;;9.70;99.90;;;;;;5093118;28;20404;-75
2021/11/14 10:16:03;;;;;;;11.17;10.07;;;9.80;99.90;;;;;;5097931;28;20425;-74
2021/11/14 10:18:29;;;;;;;11.17;10.07;;;9.80;99.90;;;;;;5113657;28;20404;-75
2021/11/14 10:20:57;;;;;;;10.77;9.70;;;9.80;99.90;;;;;;5112781;28;20430;-74
2021/11/14 10:23:23;;;;;;;12.27;10.73;;;9.80;99.90;;;;;;5112865;28;20289;-74
2021/11/14 10:25:50;;;;;;;11.77;10.57;;;9.80;99.90;;;;;;5112770;28;20973;-75
2021/11/14 10:28:15;;;;;;;10.80;9.80;;;9.90;99.90;;;;;;5111598;28;20180;-75
2021/11/14 10:30:44;;;;;;;11.87;10.70;;;9.90;99.90;;;;;;5112472;28;21018;-75
2021/11/14 10:33:13;;;;;;;11.30;10.20;;;10.00;99.90;;;;;;5113106;28;20171;-75
2021/11/14 10:35:41;;;;;;;10.90;9.43;;;10.00;99.90;;;;;;5112837;28;20412;-75
2021/11/14 10:38:11;;;;;;;12.73;8.10;;;10.00;99.90;;;;;;5113018;28;20923;-74
2021/11/14 10:40:40;;;;;;;8.40;7.60;;;10.10;99.90;;;;;;5112633;28;20496;-75
2021/11/14 10:43:07;;;;;;;10.20;9.20;;;10.10;99.90;;;;;;5112738;28;20457;-76
2021/11/14 10:45:36;;;;;;;9.50;8.60;;;10.20;99.90;;;;;;5112112;28;20976;-74
2021/11/14 10:48:07;;;;;;;8.83;8.03;;;10.20;99.90;;;;;;5112971;28;20806;-74
2021/11/14 10:50:36;;;;;;;9.17;8.30;;;10.20;99.90;;;;;;5110266;28;20424;-75
2021/11/14 10:53:05;;;;;;;10.13;9.13;;;10.20;99.90;;;;;;5112641;28;20898;-74
2021/11/14 10:55:36;;;;;;;8.00;7.20;;;10.30;99.90;;;;;;5112602;28;20500;-74
2021/11/14 10:58:03;;;;;;;7.90;7.20;;;10.40;99.90;;;;;;5112520;28;20430;-74
2021/11/14 11:00:29;;;;;;;8.03;7.33;;;10.40;99.90;;;;;;5111994;28;20409;-74
2021/11/14 11:02:54;;;;;;;8.27;7.47;;;10.40;99.90;;;;;;5100889;28;20473;-74
2021/11/14 11:05:23;;;;;;;8.20;7.40;;;10.40;99.90;;;;;;5098960;28;20425;-74
2021/11/14 11:08:10;;;;;;;7.17;6.57;;;10.40;99.90;;;;;;5112666;28;20906;-74
2021/11/14 11:10:40;;;;;;;7.50;6.90;;;10.50;99.90;;;;;;5112440;28;20414;-74
2021/11/14 11:13:10;;;;;;;7.20;6.50;;;10.50;99.90;;;;;;5112379;28;20426;-74
2021/11/14 11:15:40;;;;;;;7.43;6.83;;;10.50;99.90;;;;;;5112035;28;20975;-74
2021/11/14 11:18:08;;;;;;;7.53;6.83;;;10.60;99.90;;;;;;5112132;28;20393;-74
2021/11/14 11:20:34;;;;;;;8.30;6.60;;;10.70;99.90;;;;;;5107573;28;20979;-74
2021/11/14 11:23:03;;;;;;;7.27;6.57;;;10.70;99.90;;;;;;5112573;28;20450;-74
2021/11/14 11:31:00;;;;;;;9.10;6.33;;;10.80;99.90;;;;;;5064761;28;20520;-75
2021/11/14 11:33:27;;;;;;;6.47;5.90;;;10.90;99.90;;;;;;5065865;28;20498;-75
2021/11/14 11:35:54;;;;;;;5.43;4.93;;;10.90;99.90;;;;;;5046674;28;20419;-75
2021/11/14 11:38:21;;;;;;;6.00;5.40;;;10.90;99.90;;;;;;5029800;28;20388;-75
2021/11/14 11:40:47;;;;;;;4.80;4.30;;;10.90;99.90;;;;;;5040010;28;20421;-75
2021/11/14 11:43:13;;;;;;;4.87;4.40;;;10.90;99.90;;;;;;5049545;28;20856;-75
2021/11/14 11:45:43;;;;;;;4.50;4.10;;;10.80;99.90;;;;;;5058468;28;20800;-75
2021/11/14 11:48:26;;;;;;;4.77;4.33;;;10.90;99.90;;;;;;5056558;28;20410;-74
2021/11/14 11:51:09;;;;;;;4.70;4.30;;;10.90;99.90;;;;;;5049451;28;20949;-75
2021/11/14 11:53:35;;;;;;;7.73;6.93;;;10.90;99.90;;;;;;5040637;28;20432;-74
2021/11/14 12:01:31;;;;;;;4.53;4.13;;;10.90;99.90;;;;;;5089545;27;20547;-75
2021/11/14 12:04:11;;;;;;;3.70;3.40;;;10.80;99.90;;;;;;5058872;28;20543;-75
2021/11/14 12:06:44;;;;;;;3.33;3.03;;;10.80;99.90;;;;;;5050323;28;20920;-75
2021/11/14 12:09:13;;;;;;;2.60;2.40;;;10.70;99.90;;;;;;5047680;28;20415;-74
2021/11/14 12:11:42;;;;;;;2.60;2.40;;;10.80;99.90;;;;;;5059407;28;20949;-75
2021/11/14 12:17:10;;;;;;;3.50;3.20;;;10.80;99.90;;;;;;5086964;27;20534;-74
2021/11/14 12:19:39;;;;;;;4.80;4.27;;;10.90;99.90;;;;;;5070315;28;20466;-74
2021/11/14 12:30:09;;;;;;;4.87;4.47;;;10.80;99.90;;;;;;5129919;27;20521;-75
2021/11/14 12:32:41;;;;;;;4.07;3.63;;;10.80;99.90;;;;;;5130572;28;20394;-75
2021/11/14 12:35:07;;;;;;;3.80;3.50;;;10.80;99.90;;;;;;5130252;28;20418;-75
2021/11/14 12:37:44;;;;;;;5.20;4.70;;;10.80;99.90;;;;;;5130668;28;20769;-75
2021/11/14 12:40:13;;;;;;;6.33;5.50;;;10.80;99.90;;;;;;5130257;28;20462;-75
2021/11/14 12:42:39;;;;;;;7.20;6.30;;;10.90;99.90;;;;;;5130152;28;20430;-75
2021/11/14 12:45:05;;;;;;;7.17;6.30;;;10.90;99.90;;;;;;5116567;28;20428;-75
2021/11/14 12:47:40;;;;;;;9.50;8.40;;;10.90;99.90;;;;;;5118627;28;20182;-74
2021/11/14 12:50:16;;;;;;;11.40;9.07;;;10.90;99.90;;;;;;5130251;28;20493;-75
2021/11/14 12:52:44;;;;;;;9.77;8.87;;;10.90;99.90;;;;;;5129767;28;20412;-75
2021/11/14 12:55:17;;;;;;;7.13;6.53;;;10.90;99.90;;;;;;5129873;28;20447;-75
2021/11/14 12:57:48;;;;;;;14.93;12.90;;;10.90;99.90;;;;;;5130195;28;20383;-75